Time,TemperatureF,DewpointF,PressureIn,WindDirection,WindDirectionDegrees,WindSpeedMPH,WindSpeedGustMPH,Humidity,HourlyPrecipIn,Conditions,Clouds,dailyrainin,SoftwareType,DateUTC
2013-08-27 00:22:00,53.0,53.0,-100.00,ESE,120,6.0,8.0,99,0.00,,,-99.99,,2013-08-27 06:22:00,
2013-08-27 00:52:00,52.0,52.0,-100.00,SE,144,4.0,6.0,99,0.00,,,-99.99,,2013-08-27 06:52:00,
2013-08-27 01:21:00,52.0,52.0,-100.00,SE,130,1.0,3.0,99,0.00,,,-99.99,,2013-08-27 07:21:00,
2013-08-27 01:52:00,50.0,50.0,-100.00,ESE,121,4.0,6.0,99,0.00,,,-99.99,,2013-08-27 07:52:00,
2013-08-27 02:22:00,49.0,49.0,-100.00,ESE,118,4.0,5.0,99,0.00,,,-99.99,,2013-08-27 08:22:00,
2013-08-27 02:52:00,49.0,48.0,-100.00,SE,129,3.0,5.0,98,0.01,,,-99.99,,2013-08-27 08:52:00,
2013-08-27 03:21:00,48.0,48.0,-100.00,SE,136,4.0,7.0,99,0.01,,,-99.99,,2013-08-27 09:21:00,
2013-08-27 03:54:00,47.0,47.0,-100.00,ESE,120,4.0,6.0,99,0.00,,,-99.99,,2013-08-27 09:54:00,
2013-08-27 04:25:00,46.0,46.0,-100.00,ESE,112,3.0,4.0,99,0.00,,,-99.99,,2013-08-27 10:25:00,
2013-08-27 04:53:00,46.0,46.0,-100.00,ESE,123,4.0,5.0,99,0.00,,,-99.99,,2013-08-27 10:53:00,
2013-08-27 05:22:00,46.0,46.0,-100.00,ESE,117,3.0,5.0,99,0.00,,,-99.99,,2013-08-27 11:22:00,
2013-08-27 05:52:00,46.0,46.0,-100.00,ESE,121,4.0,5.0,99,0.00,,,-99.99,,2013-08-27 11:52:00,
2013-08-27 06:21:00,46.0,46.0,-100.00,ESE,115,4.0,5.0,99,0.00,,,-99.99,,2013-08-27 12:21:00,
2013-08-27 06:52:00,46.0,46.0,-100.00,ESE,112,3.0,5.0,99,0.00,,,-99.99,,2013-08-27 12:52:00,
2013-08-27 07:22:00,46.0,46.0,-100.00,ESE,117,4.0,5.0,99,0.00,,,-99.99,,2013-08-27 13:22:00,
2013-08-27 07:52:00,46.0,46.0,-100.00,ESE,120,3.0,4.0,99,0.00,,,-99.99,,2013-08-27 13:52:00,
2013-08-27 08:02:00,46.0,46.0,-100.00,ESE,120,3.0,4.0,99,0.00,,,-99.99,,2013-08-27 14:02:00,
2013-08-27 08:11:00,46.0,46.0,-100.00,ESE,120,3.0,4.0,99,0.00,,,-99.99,,2013-08-27 14:11:00,
2013-08-27 10:02:00,66.0,54.0,-100.00,SSE,154,2.0,4.0,66,0.00,,,-99.99,,2013-08-27 16:02:00,
2013-08-27 10:28:00,66.0,54.0,-100.00,SSE,154,2.0,4.0,66,0.00,,,-99.99,,2013-08-27 16:28:00,
2013-08-27 10:35:00,66.0,54.0,-100.00,SSE,154,2.0,4.0,66,0.00,,,-99.99,,2013-08-27 16:35:00,
2013-08-27 10:55:00,66.0,54.0,-100.00,SSE,154,2.0,4.0,66,0.00,,,-99.99,,2013-08-27 16:55:00,
2013-08-27 13:52:00,80.0,53.0,-100.00,South,175,4.0,6.0,39,0.00,,,-99.99,,2013-08-27 19:52:00,